Time;durP1;ratioP1;P1;durP2;ratioP2;P2;SDS_P1;SDS_P2;PMS_P1;PMS_P2;Temp;Humidity;BMP_temperature;BMP_pressure;BME280_temperature;BME280_humidity;BME280_pressure;Samples;Min_cycle;Max_cycle;Signal;HPM_P1;HPM_P2
2023/03/11 00:01:08;;;;;;;5.20;2.80;;;;;;;7.82;67.86;96840.37;105660;1259;74702;-24
2023/03/11 00:03:37;;;;;;;7.10;2.90;;;;;;;8.06;66.77;96836.45;105619;1259;61132;-24
2023/03/11 00:06:06;;;;;;;5.50;3.50;;;;;;;8.04;66.44;96833.27;105407;1259;61917;-24
2023/03/11 00:08:34;;;;;;;5.80;3.40;;;;;;;7.88;66.89;96833.86;105380;1259;74644;-23
2023/03/11 00:11:08;;;;;;;5.00;3.00;;;;;;;7.72;67.25;96832.95;105362;1256;75904;-23
2023/03/11 00:13:40;;;;;;;6.90;4.20;;;;;;;7.58;67.80;96830.38;105565;1261;74479;-23
2023/03/11 00:16:08;;;;;;;3.90;2.60;;;;;;;7.45;68.25;96829.14;105223;1260;61168;-24
2023/03/11 00:18:38;;;;;;;4.30;2.90;;;;;;;7.33;68.58;96823.33;105413;1259;61659;-24
2023/03/11 00:21:16;;;;;;;6.90;3.80;;;;;;;7.24;68.97;96821.64;105164;1262;74602;-23
2023/03/11 00:23:45;;;;;;;3.60;2.00;;;;;;;7.21;69.40;96817.35;105288;1257;75867;-24
2023/03/11 00:26:14;;;;;;;3.50;2.20;;;;;;;7.69;68.23;96811.45;105342;1257;73960;-24
2023/03/11 00:28:43;;;;;;;6.90;3.80;;;;;;;7.97;66.86;96801.16;105640;1257;61659;-24
2023/03/11 00:31:18;;;;;;;5.20;3.20;;;;;;;7.93;66.69;96796.77;105576;1259;62810;-23
2023/03/11 00:33:47;;;;;;;4.70;2.90;;;;;;;7.77;66.94;96797.02;105449;1256;74891;-24
2023/03/11 00:36:30;;;;;;;6.40;3.10;;;;;;;7.55;67.49;96787.06;105304;1259;75646;-24
2023/03/11 00:39:00;;;;;;;4.90;2.90;;;;;;;7.36;68.01;96785.05;105499;1256;74243;-23
2023/03/11 00:41:29;;;;;;;6.10;3.50;;;;;;;7.18;68.61;96784.14;105334;1263;61667;-25
2023/03/11 00:43:58;;;;;;;5.40;3.60;;;;;;;7.08;68.84;96777.36;105642;1261;61620;-23
2023/03/11 00:46:28;;;;;;;7.40;2.80;;;;;;;6.97;69.18;96777.13;105613;1262;75062;-24
2023/03/11 00:48:58;;;;;;;5.30;2.80;;;;;;;6.98;69.75;96769.30;105564;1259;75173;-24
2023/03/11 00:51:28;;;;;;;5.20;3.00;;;;;;;7.44;68.36;96762.47;105519;1257;74388;-24
2023/03/11 00:53:56;;;;;;;4.80;2.80;;;;;;;7.58;67.45;96760.58;105478;1262;62244;-23
2023/03/11 00:56:26;;;;;;;3.50;2.30;;;;;;;7.49;67.48;96763.17;105491;1259;61843;-24
2023/03/11 00:58:55;;;;;;;4.50;3.00;;;;;;;7.27;68.04;96757.14;105589;1257;73255;-24
2023/03/11 01:01:23;;;;;;;5.30;2.70;;;;;;;7.06;68.60;96751.23;105646;1256;75831;-24
2023/03/11 01:03:52;;;;;;;9.30;3.50;;;;;;;6.89;69.16;96754.13;105601;1258;74261;-23
2023/03/11 01:06:21;;;;;;;6.60;3.30;;;;;;;6.72;69.77;96751.44;105589;1257;61890;-24
2023/03/11 01:08:53;;;;;;;5.10;3.40;;;;;;;6.56;70.21;96753.20;105582;1257;61198;-23
2023/03/11 01:11:22;;;;;;;4.80;2.80;;;;;;;6.50;70.75;96743.77;105596;1260;75013;-23
2023/03/11 01:13:50;;;;;;;4.00;2.60;;;;;;;7.01;69.57;96744.64;105574;1257;74684;-24
2023/03/11 01:16:20;;;;;;;3.70;2.40;;;;;;;7.23;68.43;96740.27;105536;1261;74220;-24
2023/03/11 01:18:50;;;;;;;6.40;2.60;;;;;;;7.17;68.38;96733.15;105627;1257;62025;-24
2023/03/11 01:21:19;;;;;;;6.20;3.10;;;;;;;7.00;68.61;96729.35;105538;1260;61866;-24
2023/03/11 01:23:48;;;;;;;4.20;2.60;;;;;;;6.85;69.10;96734.72;105550;1257;75434;-23
2023/03/11 01:26:16;;;;;;;4.40;2.60;;;;;;;6.68;69.55;96727.69;105518;1259;74633;-24
2023/03/11 01:28:45;;;;;;;5.50;3.00;;;;;;;6.51;70.12;96727.65;105233;1262;73998;-23
2023/03/11 01:31:14;;;;;;;4.60;2.30;;;;;;;6.37;70.60;96720.25;105265;1256;61043;-23
2023/03/11 01:33:43;;;;;;;6.40;2.30;;;;;;;6.55;70.60;96713.79;105387;1260;61913;-23
2023/03/11 01:36:12;;;;;;;5.70;3.00;;;;;;;7.04;69.10;96712.80;105397;1256;75160;-23
2023/03/11 01:38:42;;;;;;;4.80;2.50;;;;;;;7.15;68.30;96705.94;105575;1263;75620;-25
2023/03/11 01:41:11;;;;;;;4.50;2.30;;;;;;;7.02;68.30;96707.73;105560;1261;74004;-24
2023/03/11 01:43:44;;;;;;;4.70;2.70;;;;;;;6.85;68.76;96706.24;105699;1257;61183;-24
2023/03/11 01:46:32;;;;;;;6.40;3.00;;;;;;;6.66;69.29;96695.60;105651;1257;61825;-24
2023/03/11 01:49:02;;;;;;;6.20;3.00;;;;;;;6.50;69.80;96696.03;105636;1253;75421;-23
2023/03/11 01:51:40;;;;;;;6.80;2.50;;;;;;;6.31;70.47;96691.09;105677;1253;75840;-25
2023/03/11 01:54:19;;;;;;;5.70;2.80;;;;;;;6.17;70.75;96687.80;105734;1255;74187;-23
2023/03/11 01:56:48;;;;;;;4.50;2.50;;;;;;;6.27;71.15;96682.35;105721;1253;62750;-23
2023/03/11 01:59:19;;;;;;;4.20;2.60;;;;;;;6.82;69.59;96679.13;105720;1253;61697;-24
2023/03/11 02:02:01;;;;;;;6.10;3.50;;;;;;;7.06;68.39;96673.10;105681;1257;75628;-23
2023/03/11 02:04:32;;;;;;;4.40;3.20;;;;;;;6.98;68.21;96665.09;105784;1257;75847;-23
2023/03/11 02:07:02;;;;;;;4.30;3.00;;;;;;;6.79;68.61;96655.16;105685;1253;74056;-24
2023/03/11 02:09:31;;;;;;;4.20;2.80;;;;;;;6.60;69.11;96655.36;105667;1254;61624;-24
2023/03/11 02:12:01;;;;;;;4.70;3.40;;;;;;;6.43;69.60;96655.67;105885;1257;61854;-23
2023/03/11 02:14:30;;;;;;;5.50;3.40;;;;;;;6.29;70.10;96656.61;105745;1254;75715;-23
2023/03/11 02:17:03;;;;;;;4.70;2.90;;;;;;;6.16;70.54;96653.46;105755;1259;75900;-23
2023/03/11 02:20:11;;;;;;;3.70;2.50;;;;;;;6.05;71.03;96651.64;105866;1257;73970;-23
2023/03/11 02:22:40;;;;;;;3.70;2.20;;;;;;;6.58;69.98;96645.20;105581;1257;61868;-24
2023/03/11 02:25:33;;;;;;;5.70;2.40;;;;;;;6.96;68.58;96643.35;105808;1258;61774;-24
2023/03/11 02:28:07;;;;;;;4.50;2.50;;;;;;;6.91;67.96;96641.86;105773;1254;75311;-23
2023/03/11 02:30:36;;;;;;;4.20;2.80;;;;;;;6.71;68.42;96637.63;105548;1262;75909;-23
2023/03/11 02:33:06;;;;;;;3.80;2.30;;;;;;;6.50;68.89;96636.95;105740;1253;73929;-24
2023/03/11 02:35:35;;;;;;;4.20;2.40;;;;;;;6.27;69.56;96635.48;105633;1257;61064;-24
2023/03/11 02:38:04;;;;;;;6.90;3.20;;;;;;;6.02;70.26;96635.18;105772;1258;61785;-23
2023/03/11 02:40:47;;;;;;;4.50;2.80;;;;;;;5.82;70.89;96634.75;105598;1257;75286;-23
2023/03/11 02:43:22;;;;;;;5.30;3.50;;;;;;;5.60;71.55;96629.99;105659;1259;75875;-24
2023/03/11 02:45:51;;;;;;;3.00;1.80;;;;;;;5.54;72.08;96622.89;105470;1261;74541;-24
2023/03/11 02:48:23;;;;;;;4.30;2.70;;;;;;;6.14;70.94;96620.70;105483;1255;61672;-23
2023/03/11 02:50:52;;;;;;;4.80;3.00;;;;;;;6.48;69.20;96621.47;105645;1258;61889;-23
2023/03/11 02:53:21;;;;;;;5.00;3.40;;;;;;;6.42;69.04;96617.38;105634;1261;75239;-24
2023/03/11 02:55:49;;;;;;;4.30;3.10;;;;;;;6.22;69.22;96610.77;105742;1259;74896;-27
2023/03/11 02:58:18;;;;;;;5.50;2.90;;;;;;;5.98;69.97;96607.03;105679;1259;74354;-24
2023/03/11 03:00:47;;;;;;;3.60;2.50;;;;;;;5.76;70.38;96608.03;105767;1255;61540;-23
2023/03/11 03:03:16;;;;;;;3.80;2.60;;;;;;;5.53;71.27;96599.44;105902;1256;61664;-23
2023/03/11 03:05:47;;;;;;;4.40;3.30;;;;;;;5.33;71.72;96595.27;105895;1257;75175;-23
2023/03/11 03:08:18;;;;;;;6.00;2.80;;;;;;;5.13;72.44;96590.63;105723;1258;75726;-24
2023/03/11 03:10:47;;;;;;;4.00;2.30;;;;;;;5.17;72.97;96587.09;105752;1257;74067;-24
2023/03/11 03:13:16;;;;;;;3.80;2.30;;;;;;;5.74;71.48;96586.13;105772;1254;62002;-23
2023/03/11 03:15:45;;;;;;;5.70;2.80;;;;;;;5.93;70.28;96585.41;105832;1265;62080;-23
2023/03/11 03:18:15;;;;;;;4.60;2.60;;;;;;;5.83;70.05;96583.33;105910;1254;75323;-24
2023/03/11 03:20:44;;;;;;;6.50;3.40;;;;;;;5.64;70.52;96584.36;105678;1258;76271;-23
2023/03/11 03:23:13;;;;;;;8.90;5.50;;;;;;;5.42;70.98;96578.30;105640;1257;74998;-23
2023/03/11 03:25:43;;;;;;;9.40;4.70;;;;;;;5.24;71.42;96575.48;105716;1254;61166;-24
2023/03/11 03:28:12;;;;;;;6.60;3.50;;;;;;;5.09;71.91;96570.35;105598;1258;61641;-23
2023/03/11 03:30:43;;;;;;;6.50;3.40;;;;;;;4.96;72.47;96574.70;105875;1255;75262;-23
2023/03/11 03:33:14;;;;;;;7.20;4.30;;;;;;;5.31;72.02;96571.79;105886;1256;75545;-24
2023/03/11 03:35:45;;;;;;;8.80;5.30;;;;;;;5.78;70.30;96571.98;105874;1259;74785;-24
2023/03/11 03:38:20;;;;;;;7.30;4.40;;;;;;;5.86;69.65;96573.08;105772;1263;61622;-23
2023/03/11 03:40:50;;;;;;;7.00;4.30;;;;;;;5.74;69.82;96562.73;105583;1266;61612;-23
2023/03/11 03:43:20;;;;;;;7.90;4.60;;;;;;;5.54;69.99;96563.16;105612;1257;76132;-23
2023/03/11 03:45:59;;;;;;;8.90;4.50;;;;;;;5.37;70.61;96560.91;105487;1259;75879;-25
2023/03/11 03:48:31;;;;;;;6.90;3.80;;;;;;;5.19;70.88;96555.25;105600;1257;73884;-24
2023/03/11 03:51:04;;;;;;;5.70;3.00;;;;;;;5.03;71.33;96546.35;105534;1254;61244;-24
2023/03/11 03:53:33;;;;;;;8.00;3.50;;;;;;;4.93;72.01;96541.80;105584;1254;61065;-23
2023/03/11 03:56:07;;;;;;;4.10;2.60;;;;;;;5.35;71.26;96536.03;105597;1260;75561;-23
2023/03/11 03:58:37;;;;;;;8.80;3.60;;;;;;;5.70;69.88;96539.06;105511;1259;74599;-24
2023/03/11 04:01:06;;;;;;;9.00;3.40;;;;;;;5.66;69.32;96537.19;105531;1257;73314;-24
2023/03/11 04:03:37;;;;;;;6.40;3.70;;;;;;;5.47;69.62;96534.10;105796;1267;61177;-24
2023/03/11 04:06:18;;;;;;;7.20;4.00;;;;;;;5.24;70.21;96530.73;105733;1259;61161;-24
2023/03/11 04:08:51;;;;;;;5.90;4.50;;;;;;;5.00;71.01;96522.05;105713;1253;75407;-24
2023/03/11 04:11:22;;;;;;;6.80;3.60;;;;;;;4.81;71.65;96516.80;105888;1257;75031;-24
2023/03/11 04:13:52;;;;;;;5.40;2.80;;;;;;;4.66;72.42;96513.51;105735;1253;74204;-23
2023/03/11 04:16:21;;;;;;;3.50;2.40;;;;;;;4.56;72.66;96510.05;105829;1258;62669;-24
2023/03/11 04:18:52;;;;;;;4.00;2.00;;;;;;;5.03;72.30;96506.52;105687;1255;61211;-24
2023/03/11 04:21:21;;;;;;;4.30;2.20;;;;;;;5.40;70.75;96503.80;105917;1259;75532;-24
2023/03/11 04:23:52;;;;;;;4.20;2.70;;;;;;;5.34;70.51;96496.90;105875;1265;75753;-23
2023/03/11 04:26:21;;;;;;;2.90;2.10;;;;;;;5.16;70.93;96499.69;105815;1257;74088;-24
2023/03/11 04:28:50;;;;;;;6.30;2.80;;;;;;;4.98;71.49;96493.70;105840;1257;61912;-24
2023/03/11 04:31:19;;;;;;;6.00;3.30;;;;;;;4.78;72.57;96494.13;105787;1257;61908;-23
2023/03/11 04:33:48;;;;;;;3.20;1.80;;;;;;;4.65;73.01;96488.56;105894;1254;75383;-24
2023/03/11 04:36:17;;;;;;;3.00;2.00;;;;;;;4.57;73.78;96483.89;105888;1263;75895;-24
2023/03/11 04:38:45;;;;;;;4.50;2.20;;;;;;;5.07;72.67;96484.40;105839;1257;74141;-24
2023/03/11 04:41:19;;;;;;;5.70;2.30;;;;;;;5.44;71.36;96478.47;105679;1255;61900;-23
2023/03/11 04:43:48;;;;;;;3.10;2.20;;;;;;;5.46;70.91;96475.49;105676;1258;61610;-23
2023/03/11 04:46:16;;;;;;;4.60;2.40;;;;;;;5.29;71.41;96473.46;105792;1254;75522;-24
2023/03/11 04:48:45;;;;;;;5.10;2.50;;;;;;;5.12;71.92;96469.13;105771;1257;75641;-24
2023/03/11 04:51:14;;;;;;;5.30;2.90;;;;;;;4.95;72.82;96466.88;105726;1257;73939;-24
2023/03/11 04:53:43;;;;;;;6.20;3.30;;;;;;;4.82;73.40;96466.54;105627;1253;61092;-24
2023/03/11 04:56:12;;;;;;;4.20;2.20;;;;;;;4.77;74.15;96463.61;105670;1253;61632;-24
2023/03/11 04:58:41;;;;;;;7.20;2.50;;;;;;;5.23;73.19;96462.15;105804;1257;75313;-24
2023/03/11 05:01:10;;;;;;;2.70;1.80;;;;;;;5.57;71.72;96462.20;105759;1257;75909;-24
2023/03/11 05:03:38;;;;;;;6.20;2.90;;;;;;;5.53;71.74;96459.80;105780;1259;73962;-24
2023/03/11 05:06:11;;;;;;;7.20;2.50;;;;;;;5.41;72.05;96454.54;105867;1255;61996;-23
2023/03/11 05:08:40;;;;;;;8.60;3.00;;;;;;;5.24;72.59;96451.77;105752;1265;61683;-24
2023/03/11 05:11:09;;;;;;;4.60;2.80;;;;;;;5.10;73.48;96453.81;105587;1254;75162;-24
2023/03/11 05:13:41;;;;;;;3.80;2.30;;;;;;;4.98;74.12;96446.98;105591;1255;75599;-24
2023/03/11 05:16:10;;;;;;;3.30;2.50;;;;;;;5.21;74.55;96445.52;105531;1256;73199;-26
2023/03/11 05:18:39;;;;;;;2.80;2.10;;;;;;;5.76;72.90;96441.56;105621;1257;61862;-23
2023/03/11 05:21:08;;;;;;;4.50;2.90;;;;;;;5.90;72.04;96435.90;105657;1254;61608;-24
2023/03/11 05:23:40;;;;;;;3.20;2.30;;;;;;;5.87;72.17;96436.48;105875;1256;75373;-24
2023/03/11 05:26:09;;;;;;;4.70;3.60;;;;;;;5.75;72.38;96426.98;105683;1258;75991;-24
2023/03/11 05:28:38;;;;;;;4.80;2.90;;;;;;;5.62;72.85;96422.95;105685;1259;74317;-24
2023/03/11 05:31:08;;;;;;;4.40;2.80;;;;;;;5.51;73.24;96421.38;105807;1254;61126;-24
2023/03/11 05:33:45;;;;;;;3.90;2.40;;;;;;;5.56;73.83;96414.83;105541;1255;61722;-23
2023/03/11 05:36:14;;;;;;;3.50;2.20;;;;;;;6.18;72.27;96414.14;105817;1256;75538;-24
2023/03/11 05:38:43;;;;;;;5.50;3.10;;;;;;;6.47;70.94;96408.14;105582;1257;75633;-23
2023/03/11 05:41:14;;;;;;;5.20;2.90;;;;;;;6.45;70.61;96410.60;105555;1254;73968;-23
2023/03/11 05:43:43;;;;;;;5.50;4.60;;;;;;;6.30;71.13;96405.26;105821;1254;61162;-23
2023/03/11 05:46:13;;;;;;;11.00;4.40;;;;;;;6.15;71.81;96400.64;105731;1258;61160;-23
2023/03/11 05:48:42;;;;;;;4.70;2.80;;;;;;;5.99;72.78;96398.01;105858;1254;75332;-28
2023/03/11 05:51:14;;;;;;;3.30;2.70;;;;;;;5.88;73.31;96404.35;105665;1257;74978;-26
2023/03/11 05:53:47;;;;;;;3.90;3.00;;;;;;;6.00;73.63;96406.34;105895;1257;73145;-23
2023/03/11 05:56:20;;;;;;;6.20;3.30;;;;;;;6.54;72.25;96411.52;105695;1252;61866;-23
2023/03/11 05:58:49;;;;;;;3.90;2.90;;;;;;;6.70;71.53;96409.13;105716;1253;61069;-23
2023/03/11 06:01:19;;;;;;;5.40;3.70;;;;;;;6.60;71.71;96406.13;105922;1257;74519;-24
2023/03/11 06:03:56;;;;;;;5.60;3.00;;;;;;;6.46;72.35;96401.20;105711;1258;76301;-23
2023/03/11 06:06:26;;;;;;;4.00;2.80;;;;;;;6.32;73.07;96402.11;105861;1254;74221;-24
2023/03/11 06:08:55;;;;;;;5.00;2.90;;;;;;;6.18;73.85;96401.11;105881;1253;61922;-23
2023/03/11 06:11:27;;;;;;;2.90;2.60;;;;;;;6.32;74.27;96397.98;105702;1258;61512;-23
2023/03/11 06:13:57;;;;;;;4.40;2.50;;;;;;;6.85;72.91;96402.61;105717;1254;75143;-24
2023/03/11 06:16:27;;;;;;;5.80;3.20;;;;;;;6.98;72.17;96405.57;105694;1255;75855;-23
2023/03/11 06:18:59;;;;;;;5.50;3.70;;;;;;;6.90;72.29;96401.71;105844;1254;73208;-23
2023/03/11 06:21:30;;;;;;;4.40;3.10;;;;;;;6.72;72.83;96397.55;105589;1254;61241;-23
2023/03/11 06:23:59;;;;;;;4.50;3.50;;;;;;;6.57;73.38;96399.18;105501;1258;61628;-23
2023/03/11 06:26:33;;;;;;;4.50;2.90;;;;;;;6.45;74.31;96391.02;105779;1254;75122;-23
2023/03/11 06:29:03;;;;;;;5.20;3.40;;;;;;;6.63;74.82;96391.11;105602;1257;75836;-25
2023/03/11 06:31:32;;;;;;;4.10;3.00;;;;;;;7.13;73.38;96388.02;105721;1255;74150;-24
2023/03/11 06:34:05;;;;;;;4.60;3.40;;;;;;;7.27;73.10;96379.77;105662;1258;61864;-23
2023/03/11 06:36:34;;;;;;;4.90;3.90;;;;;;;7.18;73.40;96379.30;105740;1260;61601;-24
2023/03/11 06:39:08;;;;;;;6.20;4.30;;;;;;;6.99;74.58;96372.44;105714;1254;75246;-24
2023/03/11 06:41:38;;;;;;;5.40;3.70;;;;;;;6.84;75.63;96365.77;105917;1251;75784;-23
2023/03/11 06:44:09;;;;;;;5.10;2.80;;;;;;;6.87;76.59;96362.33;105831;1255;73952;-23
2023/03/11 06:46:38;;;;;;;5.70;2.90;;;;;;;7.29;76.07;96362.83;105449;1261;61215;-24
2023/03/11 06:49:06;;;;;;;7.50;4.20;;;;;;;7.50;75.50;96353.05;105614;1256;61831;-24
2023/03/11 06:51:36;;;;;;;6.50;3.50;;;;;;;7.46;75.69;96349.52;105861;1254;75091;-24
2023/03/11 06:54:06;;;;;;;4.60;3.60;;;;;;;7.37;76.46;96347.69;105701;1254;75896;-24
2023/03/11 06:56:39;;;;;;;;;;;;;;;7.31;77.50;96342.88;105721;1257;74189;-23
2023/03/11 06:59:08;;;;;;;7.30;3.00;;;;;;;7.44;78.08;96343.38;105906;1257;63411;-23
2023/03/11 07:01:37;;;;;;;4.40;3.10;;;;;;;7.83;76.90;96337.95;105851;1257;61095;-23
2023/03/11 07:04:08;;;;;;;4.30;3.10;;;;;;;7.88;76.61;96329.83;105776;1257;76361;-25
2023/03/11 07:06:38;;;;;;;4.20;3.00;;;;;;;7.72;77.41;96322.75;105473;1259;75621;-23
2023/03/11 07:09:11;;;;;;;4.00;3.50;;;;;;;7.55;78.50;96318.92;105483;1256;73328;-23
2023/03/11 07:11:43;;;;;;;2.60;2.00;;;;;;;7.46;79.53;96314.30;105546;1254;63429;-23
2023/03/11 07:14:15;;;;;;;3.90;3.10;;;;;;;7.87;78.61;96309.39;105630;1255;61932;-24
2023/03/11 07:16:46;;;;;;;2.50;1.90;;;;;;;8.03;77.42;96312.78;105505;1254;75006;-22
2023/03/11 07:19:22;;;;;;;4.70;3.90;;;;;;;7.91;77.73;96311.83;105749;1256;74712;-22
2023/03/11 07:21:50;;;;;;;4.00;3.00;;;;;;;7.84;78.08;96314.66;105946;1254;74042;-22
2023/03/11 07:24:19;;;;;;;5.40;3.10;;;;;;;7.63;78.80;96311.29;105910;1256;61667;-22
2023/03/11 07:26:48;;;;;;;5.90;3.60;;;;;;;7.78;78.94;96310.69;105776;1257;61678;-24
2023/03/11 07:29:18;;;;;;;12.30;4.30;;;;;;;8.12;77.76;96307.35;105712;1258;75335;-22
2023/03/11 07:31:47;;;;;;;5.70;3.70;;;;;;;8.13;77.50;96307.58;105950;1257;76411;-23
2023/03/11 07:34:17;;;;;;;7.30;4.40;;;;;;;8.00;77.68;96302.15;105902;1255;73240;-23
2023/03/11 07:36:47;;;;;;;6.10;3.40;;;;;;;7.84;78.38;96297.77;105650;1256;62348;-24
2023/03/11 07:39:16;;;;;;;3.50;3.10;;;;;;;7.66;79.55;96285.47;105776;1256;61963;-24
2023/03/11 07:41:46;;;;;;;3.90;2.80;;;;;;;7.92;79.24;96288.30;105668;1254;75383;-23
2023/03/11 07:44:14;;;;;;;5.10;3.90;;;;;;;8.01;78.50;96289.05;105958;1253;74966;-24
2023/03/11 07:46:43;;;;;;;7.70;3.90;;;;;;;7.98;78.79;96285.49;105632;1255;73032;-24
2023/03/11 07:49:12;;;;;;;4.70;3.70;;;;;;;7.86;79.47;96281.41;105642;1251;61828;-24
2023/03/11 07:51:43;;;;;;;3.70;3.10;;;;;;;7.85;79.89;96281.27;105892;1256;61692;-25
2023/03/11 07:54:12;;;;;;;6.10;3.90;;;;;;;8.13;78.88;96271.38;105890;1254;75399;-24
2023/03/11 07:56:43;;;;;;;4.60;2.90;;;;;;;8.20;78.25;96275.16;105950;1256;75782;-24
2023/03/11 07:59:11;;;;;;;5.40;3.60;;;;;;;8.00;78.82;96279.86;105769;1256;74429;-24
2023/03/11 08:01:45;;;;;;;4.60;3.00;;;;;;;7.78;79.66;96279.84;105897;1256;62213;-24
2023/03/11 08:04:15;;;;;;;4.80;3.60;;;;;;;7.84;80.09;96282.05;105518;1253;62167;-23
2023/03/11 08:07:09;;;;;;;8.00;4.00;;;;;;;8.07;79.25;96275.63;105884;1256;74241;-24
2023/03/11 08:09:38;;;;;;;4.60;3.70;;;;;;;7.98;79.25;96275.77;105917;1254;75866;-24
2023/03/11 08:12:11;;;;;;;4.50;3.00;;;;;;;7.74;80.36;96270.77;105642;1253;74188;-23
2023/03/11 08:14:40;;;;;;;6.50;4.60;;;;;;;7.68;81.30;96269.01;105717;1256;63290;-24
2023/03/11 08:17:11;;;;;;;10.30;5.10;;;;;;;8.13;80.32;96268.55;105785;1254;61932;-24
2023/03/11 08:19:39;;;;;;;5.90;4.20;;;;;;;8.28;79.56;96268.33;105695;1254;75304;-24
2023/03/11 08:22:08;;;;;;;6.30;4.50;;;;;;;8.20;80.27;96269.14;105924;1257;75656;-24
2023/03/11 08:24:38;;;;;;;5.10;3.90;;;;;;;7.98;81.28;96265.64;105918;1257;74177;-23
2023/03/11 08:27:08;;;;;;;4.10;3.70;;;;;;;7.86;82.51;96268.85;105926;1255;63470;-24
2023/03/11 08:29:38;;;;;;;8.60;4.40;;;;;;;8.08;82.07;96259.80;105929;1256;61647;-23
2023/03/11 08:32:07;;;;;;;8.30;5.30;;;;;;;8.05;82.21;96264.63;105710;1254;75368;-23
2023/03/11 08:34:38;;;;;;;9.40;4.80;;;;;;;7.90;83.22;96260.02;105839;1254;75982;-23
2023/03/11 08:37:06;;;;;;;7.10;3.40;;;;;;;7.74;84.19;96254.19;105922;1256;74198;-23
2023/03/11 08:39:35;;;;;;;7.10;4.40;;;;;;;8.01;84.05;96253.35;105825;1256;61192;-23
2023/03/11 08:42:04;;;;;;;5.00;4.00;;;;;;;8.19;82.74;96251.78;104360;1256;1956040;-24
2023/03/11 08:44:32;;;;;;;8.10;4.80;;;;;;;8.03;82.58;96250.39;105634;1254;74584;-24
2023/03/11 08:47:02;;;;;;;5.20;3.50;;;;;;;7.77;83.10;96247.95;105677;1257;76229;-23
2023/03/11 08:49:32;;;;;;;4.70;3.60;;;;;;;7.59;84.53;96246.04;105923;1256;74071;-23
2023/03/11 08:52:00;;;;;;;5.00;4.00;;;;;;;7.96;83.48;96251.89;105832;1253;62115;-23
2023/03/11 08:54:31;;;;;;;4.50;3.50;;;;;;;8.03;82.34;96250.84;105934;1253;62235;-23
2023/03/11 08:57:02;;;;;;;4.80;3.70;;;;;;;7.90;82.82;96249.61;105912;1254;75471;-23
2023/03/11 08:59:31;;;;;;;5.60;3.60;;;;;;;7.66;83.65;96247.63;105886;1252;75685;-23
2023/03/11 09:02:01;;;;;;;5.30;4.20;;;;;;;7.59;84.73;96250.57;105734;1256;74249;-23
2023/03/11 09:04:29;;;;;;;5.00;3.50;;;;;;;8.03;83.72;96245.02;105664;1257;61947;-23
2023/03/11 09:07:04;;;;;;;6.40;3.60;;;;;;;8.21;82.13;96245.89;105893;1257;61584;-23
2023/03/11 09:09:34;;;;;;;5.10;4.50;;;;;;;8.01;82.09;96237.96;105688;1252;75097;-23
2023/03/11 09:12:03;;;;;;;5.00;3.60;;;;;;;7.67;83.21;96234.12;105663;1253;75793;-24
2023/03/11 09:14:37;;;;;;;4.90;3.90;;;;;;;7.56;83.81;96224.59;105558;1253;74197;-24
2023/03/11 09:17:07;;;;;;;5.10;4.10;;;;;;;7.94;82.81;96223.40;105706;1254;61110;-24
2023/03/11 09:19:35;;;;;;;5.10;3.70;;;;;;;7.96;81.76;96224.54;105685;1253;61317;-24
2023/03/11 09:29:41;;;;;;;6.00;4.30;;;;;;;8.04;82.69;96224.48;102582;1293;600315;-22
2023/03/11 09:32:11;;;;;;;8.30;5.30;;;;;;;8.05;81.47;96229.86;104800;1265;61734;-23
2023/03/11 09:34:40;;;;;;;8.70;5.40;;;;;;;7.82;81.97;96231.29;104755;1266;61109;-22
2023/03/11 09:37:09;;;;;;;11.80;6.60;;;;;;;7.57;82.67;96230.75;104902;1265;73683;-23
2023/03/11 09:39:38;;;;;;;9.80;6.50;;;;;;;7.37;83.32;96224.73;104864;1266;75651;-24
2023/03/11 09:42:41;;;;;;;7.90;5.10;;;;;;;7.63;82.45;96224.21;104773;1266;2108321;-25
2023/03/11 09:45:18;;;;;;;6.30;4.50;;;;;;;7.68;81.87;96223.39;104862;1264;74273;-23
2023/03/11 09:48:24;;;;;;;7.70;5.30;;;;;;;7.46;82.18;96218.73;104913;1266;61765;-23
2023/03/11 09:50:57;;;;;;;7.00;5.20;;;;;;;7.12;83.34;96218.02;105025;1265;61525;-23
2023/03/11 09:53:44;;;;;;;6.80;5.30;;;;;;;7.27;83.93;96223.19;104852;1269;74220;-23
2023/03/11 09:56:17;;;;;;;8.00;5.50;;;;;;;7.51;82.76;96220.38;104821;1271;74607;-23
2023/03/11 09:58:48;;;;;;;7.70;5.70;;;;;;;7.39;82.55;96215.33;104865;1270;74129;-23
2023/03/11 10:01:36;;;;;;;8.30;5.80;;;;;;;7.15;83.37;96209.52;104735;1270;62169;-23
2023/03/11 10:04:56;;;;;;;10.90;6.50;;;;;;;7.05;84.20;96210.50;104818;1271;61808;-23
2023/03/11 10:07:46;;;;;;;9.70;7.00;;;;;;;7.48;82.68;96203.40;104692;1266;73319;-23
2023/03/11 10:10:15;;;;;;;10.40;6.70;;;;;;;7.39;82.25;96198.57;104742;1265;75872;-23
2023/03/11 10:12:44;;;;;;;10.30;6.70;;;;;;;7.22;83.12;96200.70;104946;1265;74253;-23
2023/03/11 10:15:18;;;;;;;8.60;6.90;;;;;;;7.00;84.10;96192.23;104847;1270;61151;-23
2023/03/11 10:17:57;;;;;;;11.60;7.90;;;;;;;7.22;84.09;96190.64;104656;1266;61129;-23
2023/03/11 10:20:45;;;;;;;10.80;7.80;;;;;;;7.43;83.17;96185.56;104779;1269;74545;-23
2023/03/11 10:23:47;;;;;;;13.80;7.20;;;;;;;7.30;83.35;96188.07;104880;1270;75884;-23
2023/03/11 10:26:30;;;;;;;7.70;6.10;;;;;;;7.07;83.85;96185.66;104893;1266;73165;-23
2023/03/11 10:29:07;;;;;;;10.60;7.40;;;;;;;7.27;84.26;96182.88;104770;1267;61946;-23
2023/03/11 10:31:38;;;;;;;13.90;8.40;;;;;;;7.55;83.22;96178.96;104845;1266;61116;-23
2023/03/11 10:34:16;;;;;;;13.20;9.00;;;;;;;7.51;82.73;96172.57;104800;1265;74724;-23
2023/03/11 10:37:13;;;;;;;13.60;8.30;;;;;;;7.34;83.54;96170.64;104758;1266;75671;-23
2023/03/11 10:39:48;;;;;;;10.80;8.00;;;;;;;7.27;84.46;96161.94;104804;1266;73977;-23
2023/03/11 10:42:20;;;;;;;12.20;8.10;;;;;;;7.67;83.42;96162.20;104780;1266;61495;-23
2023/03/11 10:44:48;;;;;;;16.00;9.00;;;;;;;7.80;82.78;96157.29;104889;1266;62185;-23
2023/03/11 10:47:24;;;;;;;14.30;8.90;;;;;;;7.65;82.88;96151.91;105027;1266;73671;-23
2023/03/11 10:49:52;;;;;;;12.20;8.70;;;;;;;7.43;83.49;96155.35;104873;1270;75819;-23
2023/03/11 10:52:25;;;;;;;12.50;8.30;;;;;;;7.44;84.33;96153.30;105078;1264;74150;-23
2023/03/11 10:55:01;;;;;;;13.10;8.00;;;;;;;7.88;83.09;96146.19;104903;1266;61911;-23
2023/03/11 10:57:33;;;;;;;16.10;8.90;;;;;;;7.95;82.43;96149.51;104784;1267;61151;-23
2023/03/11 11:00:15;;;;;;;15.70;8.70;;;;;;;7.80;82.77;96150.36;104623;1271;73169;-23
2023/03/11 11:02:56;;;;;;;15.90;9.80;;;;;;;7.54;83.38;96145.53;104973;1266;75859;-23
2023/03/11 11:05:32;;;;;;;14.80;8.70;;;;;;;7.60;84.60;96141.27;104728;1269;73236;-24
2023/03/11 11:08:13;;;;;;;13.80;7.20;;;;;;;8.20;83.02;96143.08;104836;1271;61171;-23
2023/03/11 11:10:55;;;;;;;15.90;8.90;;;;;;;8.17;81.55;96149.26;104940;1266;61216;-23
2023/03/11 11:13:34;;;;;;;16.30;9.90;;;;;;;7.87;82.26;96143.77;104808;1266;74767;-23
2023/03/11 11:16:05;;;;;;;13.20;8.80;;;;;;;7.62;83.23;96141.58;104832;1271;75572;-23
2023/03/11 11:18:46;;;;;;;13.80;6.80;;;;;;;7.48;84.08;96139.35;104760;1266;74300;-23
2023/03/11 11:21:26;;;;;;;13.50;7.30;;;;;;;7.80;83.55;96134.86;104865;1266;61695;-23
2023/03/11 11:24:19;;;;;;;11.70;7.70;;;;;;;7.98;82.51;96133.95;105022;1266;61176;-23
2023/03/11 11:27:10;;;;;;;14.90;9.20;;;;;;;7.71;83.30;96130.35;104824;1265;74742;-23
2023/03/11 11:29:40;;;;;;;14.40;8.40;;;;;;;7.51;84.01;96128.70;105056;1268;75644;-23
2023/03/11 11:32:16;;;;;;;10.30;7.30;;;;;;;7.52;84.98;96124.30;104782;1265;74255;-23
2023/03/11 11:34:58;;;;;;;14.00;8.20;;;;;;;8.06;83.18;96112.84;104795;1270;61248;-23
2023/03/11 11:37:33;;;;;;;15.40;8.00;;;;;;;8.24;82.07;96112.00;105111;1267;61865;-23
2023/03/11 11:40:16;;;;;;;16.90;7.50;;;;;;;8.05;82.12;96112.66;104916;1263;74574;-23
2023/03/11 11:42:58;;;;;;;12.00;6.60;;;;;;;7.64;83.26;96114.23;104934;1265;74995;-23
2023/03/11 11:45:37;;;;;;;8.30;5.40;;;;;;;7.49;84.63;96107.48;105059;1262;74123;-23
2023/03/11 11:48:30;;;;;;;12.50;6.70;;;;;;;7.92;83.53;96104.23;104893;1267;61165;-23
2023/03/11 11:51:00;;;;;;;10.30;6.30;;;;;;;8.09;82.48;96101.91;104930;1268;62032;-23
2023/03/11 11:53:34;;;;;;;10.00;6.50;;;;;;;7.90;82.98;96101.61;105087;1268;73530;-23
2023/03/11 11:56:03;;;;;;;12.50;6.10;;;;;;;7.62;83.84;96102.20;105178;1267;75656;-23
2023/03/11 11:58:32;;;;;;;10.80;5.20;;;;;;;7.51;85.06;96105.61;105193;1261;74213;-23
2023/03/11 12:01:03;;;;;;;10.60;5.00;;;;;;;7.94;83.83;96098.87;105103;1267;61139;-23
2023/03/11 12:04:04;;;;;;;7.80;4.40;;;;;;;7.95;83.19;96095.05;105006;1265;61793;-23